createdAt,value
2018-06-28T00:00:12.908Z,1016.83
2018-06-28T00:01:12.894Z,1016.84
2018-06-28T00:02:12.886Z,1016.83
2018-06-28T00:03:12.873Z,1016.82
2018-06-28T00:04:12.876Z,1016.84
2018-06-28T00:05:12.855Z,1016.90
2018-06-28T00:06:12.841Z,1016.89
2018-06-28T00:07:12.832Z,1016.90
2018-06-28T00:08:12.820Z,1016.91
2018-06-28T00:09:12.829Z,1016.92
2018-06-28T00:10:12.802Z,1016.90
2018-06-28T00:11:12.787Z,1016.88
2018-06-28T00:12:12.776Z,1016.86
2018-06-28T00:13:12.767Z,1016.85
2018-06-28T00:14:12.768Z,1016.86
2018-06-28T00:15:12.744Z,1016.86
2018-06-28T00:16:12.732Z,1016.85
2018-06-28T00:17:12.722Z,1016.86
2018-06-28T00:18:12.742Z,1016.85
2018-06-28T00:19:12.713Z,1016.88
2018-06-28T00:20:12.694Z,1016.91
2018-06-28T00:21:12.680Z,1016.91
2018-06-28T00:22:12.671Z,1016.89
2018-06-28T00:23:12.657Z,1016.91
2018-06-28T00:24:12.680Z,1016.89
2018-06-28T00:25:12.635Z,1016.89
2018-06-28T00:26:12.624Z,1016.87
2018-06-28T00:27:12.615Z,1016.87
2018-06-28T00:28:12.601Z,1016.83
2018-06-28T00:29:12.590Z,1016.85
2018-06-28T00:30:12.599Z,1016.83
2018-06-28T00:31:12.568Z,1016.80
2018-06-28T00:32:12.558Z,1016.82
2018-06-28T00:33:12.546Z,1016.78
2018-06-28T00:34:12.536Z,1016.80
2018-06-28T00:35:12.541Z,1016.83
2018-06-28T00:36:12.514Z,1016.80
2018-06-28T00:37:12.503Z,1016.83
2018-06-28T00:38:12.495Z,1016.84
2018-06-28T00:39:12.483Z,1016.92
2018-06-28T00:40:12.481Z,1016.89
2018-06-28T00:41:12.460Z,1016.92
2018-06-28T00:42:12.445Z,1016.93
2018-06-28T00:43:12.436Z,1016.96
2018-06-28T00:44:12.428Z,1016.98
2018-06-28T00:45:12.452Z,1016.98
2018-06-28T00:46:12.403Z,1016.97
2018-06-28T00:47:12.395Z,1016.97
2018-06-28T00:48:12.379Z,1016.96
2018-06-28T00:49:12.369Z,1016.94
2018-06-28T00:50:12.361Z,1016.97
2018-06-28T00:51:12.366Z,1016.96
2018-06-28T00:52:12.336Z,1016.96
2018-06-28T00:53:12.324Z,1016.96
2018-06-28T00:54:12.314Z,1016.98
2018-06-28T00:55:12.302Z,1016.98
2018-06-28T00:56:12.307Z,1016.96
2018-06-28T00:57:12.280Z,1016.96
2018-06-28T00:58:12.271Z,1016.97
2018-06-28T00:59:12.259Z,1016.98
2018-06-28T01:00:12.246Z,1016.95
2018-06-28T01:01:12.250Z,1016.95
2018-06-28T01:02:12.224Z,1016.93
2018-06-28T01:03:12.216Z,1016.94
2018-06-28T01:04:12.202Z,1016.90
2018-06-28T01:05:12.194Z,1016.95
2018-06-28T01:06:12.193Z,1016.91
2018-06-28T01:07:12.172Z,1016.93
2018-06-28T01:08:12.158Z,1016.88
2018-06-28T01:09:12.152Z,1016.86
2018-06-28T01:10:12.136Z,1016.88
2018-06-28T01:11:12.141Z,1016.85
2018-06-28T01:12:12.114Z,1016.86
2018-06-28T01:13:12.124Z,1016.88
2018-06-28T01:14:12.092Z,1016.84
2018-06-28T01:15:12.080Z,1016.86
2018-06-28T01:16:12.069Z,1016.84
2018-06-28T01:17:12.071Z,1016.84
2018-06-28T01:18:12.053Z,1016.82
2018-06-28T01:19:12.036Z,1016.85
2018-06-28T01:20:12.025Z,1016.83
2018-06-28T01:21:12.014Z,1016.85
2018-06-28T01:22:12.017Z,1016.83
2018-06-28T01:23:11.993Z,1016.82
2018-06-28T01:24:11.984Z,1016.82
2018-06-28T01:25:11.971Z,1016.82
2018-06-28T01:26:11.960Z,1016.78
2018-06-28T01:27:11.963Z,1016.81
2018-06-28T01:28:11.936Z,1016.80
2018-06-28T01:29:11.926Z,1016.80
2018-06-28T01:30:11.922Z,1016.80
2018-06-28T01:31:11.903Z,1016.86
2018-06-28T01:32:11.908Z,1016.83
2018-06-28T01:33:11.884Z,1016.83
2018-06-28T01:34:11.873Z,1016.82
2018-06-28T01:35:11.865Z,1016.79
2018-06-28T01:36:11.854Z,1016.84
2018-06-28T01:37:11.858Z,1016.80
2018-06-28T01:38:11.829Z,1016.80
2018-06-28T01:39:11.818Z,1016.82
2018-06-28T01:40:11.804Z,1016.82
2018-06-28T01:41:11.795Z,1016.83
2018-06-28T01:42:11.790Z,1016.84
2018-06-28T01:43:11.792Z,1016.81
2018-06-28T01:44:11.766Z,1016.82
2018-06-28T01:45:11.750Z,1016.81
2018-06-28T01:46:11.741Z,1016.86
2018-06-28T01:47:11.730Z,1016.82
2018-06-28T01:48:11.729Z,1016.85
2018-06-28T01:49:11.705Z,1016.87
2018-06-28T01:50:11.695Z,1016.88
2018-06-28T01:51:11.685Z,1016.89
2018-06-28T01:52:11.674Z,1016.89
2018-06-28T01:53:11.678Z,1016.91
2018-06-28T01:54:11.666Z,1016.92
2018-06-28T01:55:11.640Z,1016.88
2018-06-28T01:56:11.629Z,1016.91
2018-06-28T01:57:11.617Z,1016.89
2018-06-28T01:58:11.626Z,1016.88
2018-06-28T01:59:11.598Z,1016.85
2018-06-28T02:00:11.587Z,1016.83
2018-06-28T02:01:11.575Z,1016.79
2018-06-28T02:02:11.563Z,1016.83
2018-06-28T02:03:11.553Z,1016.81
2018-06-28T02:04:11.560Z,1016.80
2018-06-28T02:05:11.532Z,1016.81
2018-06-28T02:06:11.520Z,1016.80
2018-06-28T02:07:11.509Z,1016.82
2018-06-28T02:08:11.501Z,1016.82
2018-06-28T02:09:11.517Z,1016.83
2018-06-28T02:10:11.479Z,1016.88
2018-06-28T02:11:11.468Z,1016.89
2018-06-28T02:12:11.455Z,1016.88
2018-06-28T02:13:11.447Z,1016.91
2018-06-28T02:14:11.452Z,1016.87
2018-06-28T02:15:11.424Z,1016.85
2018-06-28T02:16:11.413Z,1016.87
2018-06-28T02:17:11.403Z,1016.88
2018-06-28T02:18:11.394Z,1016.85
2018-06-28T02:19:11.381Z,1016.86
2018-06-28T02:20:11.382Z,1016.86
2018-06-28T02:21:11.364Z,1016.84
2018-06-28T02:22:11.348Z,1016.81
2018-06-28T02:23:11.338Z,1016.80
2018-06-28T02:24:11.326Z,1016.78
2018-06-28T02:25:11.330Z,1016.80
2018-06-28T02:26:11.305Z,1016.80
2018-06-28T02:27:11.306Z,1016.80
2018-06-28T02:28:11.286Z,1016.78
2018-06-28T02:29:11.278Z,1016.79
2018-06-28T02:30:11.278Z,1016.80
2018-06-28T02:31:11.252Z,1016.83
2018-06-28T02:32:11.244Z,1016.83
2018-06-28T02:33:11.229Z,1016.84
2018-06-28T02:34:11.224Z,1016.87
2018-06-28T02:35:11.228Z,1016.83
2018-06-28T02:36:11.197Z,1016.84
2018-06-28T02:37:11.186Z,1016.82
2018-06-28T02:38:11.177Z,1016.86
2018-06-28T02:39:11.164Z,1016.83
2018-06-28T02:40:11.154Z,1016.85
2018-06-28T02:41:11.156Z,1016.81
2018-06-28T02:42:11.132Z,1016.78
2018-06-28T02:43:11.122Z,1016.78
2018-06-28T02:44:11.115Z,1016.78
2018-06-28T02:45:11.099Z,1016.78
2018-06-28T02:46:11.114Z,1016.79
2018-06-28T02:47:11.077Z,1016.77
2018-06-28T02:48:11.071Z,1016.82
2018-06-28T02:49:11.062Z,1016.78
2018-06-28T02:50:11.045Z,1016.81
2018-06-28T02:51:11.034Z,1016.84
2018-06-28T02:52:11.035Z,1016.80
2018-06-28T02:53:11.013Z,1016.82
2018-06-28T02:54:11.001Z,1016.85
2018-06-28T02:55:10.994Z,1016.80
2018-06-28T02:56:10.981Z,1016.84
2018-06-28T02:57:10.979Z,1016.86
2018-06-28T02:58:10.958Z,1016.90
2018-06-28T02:59:10.947Z,1016.87
2018-06-28T03:00:10.935Z,1016.83
2018-06-28T03:01:10.925Z,1016.85
2018-06-28T03:02:10.947Z,1016.90
2018-06-28T03:03:10.902Z,1016.88
2018-06-28T03:04:10.892Z,1016.87
2018-06-28T03:05:10.883Z,1016.87
2018-06-28T03:06:10.871Z,1016.87
2018-06-28T03:07:10.861Z,1016.84
2018-06-28T03:08:10.860Z,1016.87
2018-06-28T03:09:10.836Z,1016.91
2018-06-28T03:10:10.830Z,1016.84
2018-06-28T03:11:10.825Z,1016.87
2018-06-28T03:12:10.817Z,1016.84
2018-06-28T03:13:10.792Z,1016.84
2018-06-28T03:14:10.779Z,1016.86
2018-06-28T03:15:10.772Z,1016.84
2018-06-28T03:16:10.761Z,1016.85
2018-06-28T03:17:10.748Z,1016.83
2018-06-28T03:18:10.750Z,1016.86
2018-06-28T03:19:10.725Z,1016.90
2018-06-28T03:20:10.724Z,1016.89
2018-06-28T03:21:10.703Z,1016.90
2018-06-28T03:22:10.696Z,1016.88
2018-06-28T03:23:10.694Z,1016.90
2018-06-28T03:24:10.675Z,1016.89
2018-06-28T03:25:10.662Z,1016.91
2018-06-28T03:26:10.649Z,1016.88
2018-06-28T03:27:10.644Z,1016.88
2018-06-28T03:28:10.644Z,1016.90
2018-06-28T03:29:10.622Z,1016.89
2018-06-28T03:30:10.606Z,1016.83
2018-06-28T03:31:10.618Z,1016.78
2018-06-28T03:32:10.582Z,1016.86
2018-06-28T03:33:10.595Z,1016.84
2018-06-28T03:34:10.561Z,1016.84
2018-06-28T03:35:10.552Z,1016.86
2018-06-28T03:36:10.540Z,1016.88
2018-06-28T03:37:10.529Z,1016.88
2018-06-28T03:38:10.554Z,1016.89
2018-06-28T03:39:10.506Z,1016.90
2018-06-28T03:40:10.495Z,1016.85
2018-06-28T03:41:10.489Z,1016.87
2018-06-28T03:42:10.475Z,1016.85
2018-06-28T03:43:10.464Z,1016.84
2018-06-28T03:44:10.469Z,1016.92
2018-06-28T03:45:10.444Z,1016.91
2018-06-28T03:46:10.429Z,1016.89
2018-06-28T03:47:10.418Z,1016.88
2018-06-28T03:48:10.409Z,1016.88
2018-06-28T03:49:10.411Z,1016.92
2018-06-28T03:50:10.387Z,1016.91
2018-06-28T03:51:10.377Z,1016.94
2018-06-28T03:52:10.365Z,1016.94
2018-06-28T03:53:10.355Z,1016.91
2018-06-28T03:54:10.357Z,1016.91
2018-06-28T03:55:10.329Z,1016.92
2018-06-28T03:56:10.323Z,1016.94
2018-06-28T03:57:10.308Z,1016.97
2018-06-28T03:58:10.299Z,1016.95
2018-06-28T03:59:10.299Z,1016.93
2018-06-28T04:00:10.275Z,1016.92
2018-06-28T04:01:10.264Z,1016.95
2018-06-28T04:02:10.255Z,1016.97
2018-06-28T04:03:10.244Z,1016.92
2018-06-28T04:04:10.244Z,1016.97
2018-06-28T04:05:10.223Z,1016.94
2018-06-28T04:06:10.212Z,1016.91
2018-06-28T04:07:10.201Z,1016.94
2018-06-28T04:08:10.190Z,1016.95
2018-06-28T04:09:10.196Z,1016.99
2018-06-28T04:10:10.166Z,1016.97
2018-06-28T04:11:10.156Z,1016.99
2018-06-28T04:12:10.145Z,1016.97
2018-06-28T04:13:10.135Z,1017.03
2018-06-28T04:14:10.140Z,1017.02
2018-06-28T04:15:10.113Z,1017.04
2018-06-28T04:16:10.101Z,1017.09
2018-06-28T04:17:10.090Z,1017.11
2018-06-28T04:18:10.079Z,1017.05
2018-06-28T04:19:10.069Z,1017.10
2018-06-28T04:20:10.068Z,1017.08
2018-06-28T04:21:10.047Z,1017.08
2018-06-28T04:22:10.039Z,1017.06
2018-06-28T04:23:10.027Z,1017.04
2018-06-28T04:24:10.017Z,1017.07
2018-06-28T04:25:10.027Z,1017.13
2018-06-28T04:26:10.002Z,1017.13
2018-06-28T04:27:09.982Z,1017.10
2018-06-28T04:28:09.972Z,1017.10
2018-06-28T04:29:09.959Z,1017.11
2018-06-28T04:30:09.975Z,1017.12
2018-06-28T04:31:09.939Z,1017.11
2018-06-28T04:32:09.929Z,1017.12
2018-06-28T04:33:09.918Z,1017.07
2018-06-28T04:34:09.907Z,1017.13
2018-06-28T04:35:09.894Z,1017.07
2018-06-28T04:36:09.896Z,1017.10
2018-06-28T04:37:09.873Z,1017.15
2018-06-28T04:38:09.861Z,1017.11
2018-06-28T04:39:09.855Z,1017.14
2018-06-28T04:40:09.843Z,1017.19
2018-06-28T04:41:09.842Z,1017.15
2018-06-28T04:42:09.821Z,1017.20
2018-06-28T04:43:09.808Z,1017.18
2018-06-28T04:44:09.797Z,1017.14
2018-06-28T04:45:09.786Z,1017.18
2018-06-28T04:46:09.810Z,1017.16
2018-06-28T04:47:09.765Z,1017.16
2018-06-28T04:48:09.754Z,1017.20
2018-06-28T04:49:09.743Z,1017.15
2018-06-28T04:50:09.733Z,1017.14
2018-06-28T04:51:09.721Z,1017.15
2018-06-28T04:52:09.742Z,1017.16
2018-06-28T04:53:09.700Z,1017.15
2018-06-28T04:54:09.689Z,1017.13
2018-06-28T04:55:09.681Z,1017.14
2018-06-28T04:56:09.670Z,1017.11
2018-06-28T04:57:09.669Z,1017.14
2018-06-28T04:58:09.645Z,1017.15
2018-06-28T04:59:09.634Z,1017.19
2018-06-28T05:00:09.626Z,1017.16
2018-06-28T05:01:09.646Z,1017.16
2018-06-28T05:02:09.616Z,1017.17
2018-06-28T05:03:09.594Z,1017.09
2018-06-28T05:04:09.583Z,1017.13
2018-06-28T05:05:09.579Z,1017.12
2018-06-28T05:06:09.561Z,1017.13
2018-06-28T05:07:09.624Z,1017.17
2018-06-28T05:08:09.539Z,1017.16
2018-06-28T05:09:09.532Z,1017.18
2018-06-28T05:10:09.517Z,1017.16
2018-06-28T05:11:09.506Z,1017.17
2018-06-28T05:12:09.512Z,1017.21
2018-06-28T05:13:09.485Z,1017.22
2018-06-28T05:14:09.478Z,1017.23
2018-06-28T05:15:09.468Z,1017.20
2018-06-28T05:16:09.455Z,1017.22
2018-06-28T05:17:09.505Z,1017.15
2018-06-28T05:18:09.433Z,1017.15
2018-06-28T05:19:09.422Z,1017.18
2018-06-28T05:20:09.411Z,1017.15
2018-06-28T05:21:09.402Z,1017.11
2018-06-28T05:22:09.406Z,1017.18
2018-06-28T05:23:09.379Z,1017.19
2018-06-28T05:24:09.371Z,1017.19
2018-06-28T05:25:09.379Z,1017.16
2018-06-28T05:26:09.348Z,1017.15
2018-06-28T05:27:09.337Z,1017.15
2018-06-28T05:28:09.339Z,1017.10
2018-06-28T05:29:09.364Z,1017.09
2018-06-28T05:30:09.311Z,1017.10
2018-06-28T05:31:09.293Z,1017.09
2018-06-28T05:32:09.284Z,1017.13
2018-06-28T05:33:09.286Z,1017.11
2018-06-28T05:34:09.265Z,1017.15
2018-06-28T05:35:09.260Z,1017.13
2018-06-28T05:36:09.340Z,1017.19
2018-06-28T05:37:09.231Z,1017.22
2018-06-28T05:38:09.256Z,1017.23
2018-06-28T05:39:09.210Z,1017.26
2018-06-28T05:40:09.201Z,1017.24
2018-06-28T05:41:09.191Z,1017.21
2018-06-28T05:42:09.183Z,1017.21
2018-06-28T05:43:09.170Z,1017.23
2018-06-28T05:44:09.173Z,1017.23
2018-06-28T05:45:09.198Z,1017.25
2018-06-28T05:46:09.137Z,1017.28
2018-06-28T05:47:09.225Z,1017.24
2018-06-28T05:48:09.121Z,1017.15
2018-06-28T05:49:09.120Z,1017.22
2018-06-28T05:50:09.098Z,1017.21
2018-06-28T05:51:09.084Z,1017.19
2018-06-28T05:52:09.076Z,1017.26
2018-06-28T05:53:09.069Z,1017.32
2018-06-28T05:54:09.081Z,1017.26
2018-06-28T05:55:09.042Z,1017.26
2018-06-28T05:56:09.033Z,1017.27
2018-06-28T05:57:09.021Z,1017.27
2018-06-28T05:58:09.011Z,1017.28
2018-06-28T05:59:09.018Z,1017.28
2018-06-28T06:00:08.991Z,1017.20
2018-06-28T06:01:08.979Z,1017.21
2018-06-28T06:02:08.968Z,1017.25
2018-06-28T06:03:08.960Z,1017.21
2018-06-28T06:04:08.950Z,1017.20
2018-06-28T06:05:08.958Z,1017.23
2018-06-28T06:06:08.930Z,1017.18
2018-06-28T06:07:08.918Z,1017.18
2018-06-28T06:08:08.912Z,1017.18
2018-06-28T06:09:08.899Z,1017.19
2018-06-28T06:10:08.910Z,1017.16
2018-06-28T06:11:08.880Z,1017.15
2018-06-28T06:12:09.012Z,1017.17
2018-06-28T06:13:08.857Z,1017.19
2018-06-28T06:14:08.847Z,1017.25
2018-06-28T06:15:08.841Z,1017.23
2018-06-28T06:16:08.838Z,1017.26
2018-06-28T06:17:08.816Z,1017.26
2018-06-28T06:18:08.807Z,1017.23
2018-06-28T06:19:08.799Z,1017.25
2018-06-28T06:20:08.803Z,1017.24
2018-06-28T06:21:08.788Z,1017.18
2018-06-28T06:22:08.769Z,1017.23
2018-06-28T06:23:08.757Z,1017.24
2018-06-28T06:24:08.746Z,1017.25
2018-06-28T06:25:08.733Z,1017.26
2018-06-28T06:26:08.735Z,1017.24
2018-06-28T06:27:08.714Z,1017.24
2018-06-28T06:28:08.702Z,1017.24
2018-06-28T06:29:08.694Z,1017.23
2018-06-28T06:30:08.685Z,1017.28
2018-06-28T06:31:08.685Z,1017.25
2018-06-28T06:32:08.662Z,1017.27
2018-06-28T06:33:08.653Z,1017.29
2018-06-28T06:34:08.643Z,1017.30
2018-06-28T06:35:08.633Z,1017.31
2018-06-28T06:36:08.729Z,1017.30
2018-06-28T06:37:08.694Z,1017.32
2018-06-28T06:38:08.602Z,1017.34
2018-06-28T06:39:08.594Z,1017.33
2018-06-28T06:40:08.583Z,1017.35
2018-06-28T06:41:08.570Z,1017.31
2018-06-28T06:42:08.573Z,1017.36
2018-06-28T06:43:08.553Z,1017.36
2018-06-28T06:44:08.540Z,1017.33
2018-06-28T06:45:08.533Z,1017.33
2018-06-28T06:46:08.520Z,1017.36
2018-06-28T06:47:08.525Z,1017.27
2018-06-28T06:48:08.503Z,1017.30
2018-06-28T06:49:08.495Z,1017.32
2018-06-28T06:50:08.482Z,1017.29
2018-06-28T06:51:08.480Z,1017.31
2018-06-28T06:52:08.461Z,1017.28
2018-06-28T06:53:08.465Z,1017.28
2018-06-28T06:54:08.440Z,1017.31
2018-06-28T06:55:08.432Z,1017.26
2018-06-28T06:56:08.428Z,1017.28
2018-06-28T06:57:08.411Z,1017.28
2018-06-28T06:58:08.416Z,1017.33
2018-06-28T06:59:08.394Z,1017.33
2018-06-28T07:00:08.383Z,1017.34
2018-06-28T07:01:08.371Z,1017.33
2018-06-28T07:02:08.361Z,1017.28
2018-06-28T07:03:08.370Z,1017.32
2018-06-28T07:04:08.349Z,1017.28
2018-06-28T07:05:08.338Z,1017.33
2018-06-28T07:06:08.361Z,1017.31
2018-06-28T07:07:08.315Z,1017.32
2018-06-28T07:08:08.324Z,1017.35
2018-06-28T07:09:08.295Z,1017.31
2018-06-28T07:10:08.372Z,1017.28
2018-06-28T07:11:08.277Z,1017.29
2018-06-28T07:12:08.265Z,1017.32
2018-06-28T07:13:08.255Z,1017.28
2018-06-28T07:14:08.258Z,1017.32
2018-06-28T07:15:08.238Z,1017.36
2018-06-28T07:16:08.294Z,1017.38
2018-06-28T07:17:08.213Z,1017.34
2018-06-28T07:18:08.204Z,1017.43
2018-06-28T07:19:08.209Z,1017.42
2018-06-28T07:20:08.183Z,1017.38
2018-06-28T07:21:08.182Z,1017.40
2018-06-28T07:22:08.167Z,1017.40
2018-06-28T07:23:08.283Z,1017.38
2018-06-28T07:24:08.180Z,1017.46
2018-06-28T07:25:08.136Z,1017.43
2018-06-28T07:26:08.128Z,1017.47
2018-06-28T07:27:08.116Z,1017.47
2018-06-28T07:28:08.106Z,1017.48
2018-06-28T07:29:08.098Z,1017.49
2018-06-28T07:30:08.099Z,1017.51
2018-06-28T07:31:08.081Z,1017.50
2018-06-28T07:32:08.069Z,1017.48
2018-06-28T07:33:08.085Z,1017.51
2018-06-28T07:34:08.077Z,1017.45
2018-06-28T07:35:08.053Z,1017.45
2018-06-28T07:36:08.036Z,1017.44
2018-06-28T07:37:08.023Z,1017.44
2018-06-28T07:38:08.011Z,1017.44
2018-06-28T07:39:08.004Z,1017.45
2018-06-28T07:40:07.994Z,1017.47
2018-06-28T07:41:07.997Z,1017.44
2018-06-28T07:42:07.975Z,1017.42
2018-06-28T07:43:07.964Z,1017.43
2018-06-28T07:44:07.959Z,1017.41
2018-06-28T07:45:07.946Z,1017.40
2018-06-28T07:46:07.955Z,1017.40
2018-06-28T07:47:07.928Z,1017.41
2018-06-28T07:48:07.919Z,1017.35
2018-06-28T07:49:07.940Z,1017.35
2018-06-28T07:50:07.902Z,1017.37
2018-06-28T07:51:07.904Z,1017.34
2018-06-28T07:52:07.884Z,1017.36
2018-06-28T07:53:07.872Z,1017.38
2018-06-28T07:54:07.863Z,1017.38
2018-06-28T07:55:07.852Z,1017.40
2018-06-28T07:56:07.859Z,1017.43
2018-06-28T07:57:07.833Z,1017.46
2018-06-28T07:58:07.823Z,1017.41
2018-06-28T07:59:07.814Z,1017.40
2018-06-28T08:00:07.806Z,1017.39
2018-06-28T08:01:07.794Z,1017.37
2018-06-28T08:02:07.798Z,1017.36
2018-06-28T08:03:07.776Z,1017.39
2018-06-28T08:04:07.767Z,1017.34
2018-06-28T08:05:07.765Z,1017.34
2018-06-28T08:06:07.748Z,1017.34
2018-06-28T08:07:07.752Z,1017.38
2018-06-28T08:08:07.733Z,1017.39
2018-06-28T08:09:07.723Z,1017.33
2018-06-28T08:10:07.712Z,1017.37
2018-06-28T08:11:07.701Z,1017.40
2018-06-28T08:12:07.714Z,1017.42
2018-06-28T08:13:07.683Z,1017.28
2018-06-28T08:14:07.676Z,1017.26
2018-06-28T08:15:07.665Z,1017.24
2018-06-28T08:16:07.655Z,1017.28
2018-06-28T08:17:07.649Z,1017.35
2018-06-28T08:18:07.650Z,1017.42
2018-06-28T08:19:07.631Z,1017.39
2018-06-28T08:20:07.618Z,1017.39
2018-06-28T08:21:07.609Z,1017.42
2018-06-28T08:22:07.599Z,1017.41
2018-06-28T08:23:07.627Z,1017.37
2018-06-28T08:24:07.585Z,1017.34
2018-06-28T08:25:07.576Z,1017.38
2018-06-28T08:26:07.564Z,1017.42
2018-06-28T08:27:07.556Z,1017.41
2018-06-28T08:28:07.559Z,1017.43
2018-06-28T08:29:07.537Z,1017.40
2018-06-28T08:30:07.527Z,1017.35
2018-06-28T08:31:07.518Z,1017.42
2018-06-28T08:32:07.517Z,1017.39
2018-06-28T08:33:07.517Z,1017.39
2018-06-28T08:34:07.500Z,1017.39
2018-06-28T08:35:07.483Z,1017.33
2018-06-28T08:36:07.499Z,1017.33
2018-06-28T08:37:07.467Z,1017.41
2018-06-28T08:38:07.471Z,1017.37
2018-06-28T08:39:07.451Z,1017.35
2018-06-28T08:40:07.441Z,1017.35
2018-06-28T08:41:07.434Z,1017.35
2018-06-28T08:42:07.421Z,1017.35
2018-06-28T08:43:07.432Z,1017.36
2018-06-28T08:44:07.405Z,1017.36
2018-06-28T08:45:07.402Z,1017.32
2018-06-28T08:46:07.386Z,1017.34
2018-06-28T08:47:07.381Z,1017.38
2018-06-28T08:48:07.385Z,1017.37
2018-06-28T08:49:07.398Z,1017.34
2018-06-28T08:50:07.353Z,1017.36
2018-06-28T08:51:07.348Z,1017.36
2018-06-28T08:52:07.336Z,1017.35
2018-06-28T08:53:07.329Z,1017.32
2018-06-28T08:54:07.333Z,1017.30
2018-06-28T08:55:07.311Z,1017.31
2018-06-28T08:56:07.303Z,1017.34
2018-06-28T08:57:07.298Z,1017.33
2018-06-28T08:58:07.339Z,1017.33
2018-06-28T08:59:07.295Z,1017.32
2018-06-28T09:00:07.272Z,1017.32
2018-06-28T09:01:07.262Z,1017.35
2018-06-28T09:02:07.251Z,1017.35
2018-06-28T09:03:07.243Z,1017.30
2018-06-28T09:04:07.249Z,1017.27
2018-06-28T09:05:07.224Z,1017.27
2018-06-28T09:06:07.217Z,1017.23
2018-06-28T09:07:07.208Z,1017.21
2018-06-28T09:08:07.201Z,1017.22
2018-06-28T09:09:07.191Z,1017.25
2018-06-28T09:10:07.195Z,1017.23
2018-06-28T09:11:07.179Z,1017.20
2018-06-28T09:12:07.167Z,1017.23
2018-06-28T09:13:07.162Z,1017.20
2018-06-28T09:14:07.150Z,1017.23
2018-06-28T09:15:07.155Z,1017.22
2018-06-28T09:16:07.135Z,1017.22
2018-06-28T09:17:07.132Z,1017.19
2018-06-28T09:18:07.117Z,1017.17
2018-06-28T09:19:07.107Z,1017.17
2018-06-28T09:20:07.115Z,1017.19
2018-06-28T09:21:07.093Z,1017.11
2018-06-28T09:22:07.085Z,1016.95
2018-06-28T09:23:07.189Z,1016.84
2018-06-28T09:24:07.068Z,1016.85
2018-06-28T09:25:07.074Z,1016.78
2018-06-28T09:26:07.049Z,1016.76
2018-06-28T09:27:07.046Z,1016.77
2018-06-28T09:28:07.035Z,1016.72
2018-06-28T09:29:07.029Z,1016.64
2018-06-28T09:30:07.018Z,1016.65
2018-06-28T09:31:07.031Z,1016.64
2018-06-28T09:32:07.006Z,1016.61
2018-06-28T09:33:06.987Z,1017.04
2018-06-28T09:34:06.978Z,1017.01
2018-06-28T09:35:06.969Z,1017.04
2018-06-28T09:36:06.961Z,1016.62
2018-06-28T09:37:06.966Z,1016.62
2018-06-28T09:38:06.943Z,1016.55
2018-06-28T09:39:06.933Z,1016.53
2018-06-28T09:40:06.924Z,1016.50
2018-06-28T09:41:06.916Z,1016.53
2018-06-28T09:42:06.919Z,1016.86
2018-06-28T09:43:06.896Z,1016.87
2018-06-28T09:44:06.886Z,1016.64
2018-06-28T09:45:06.875Z,1016.45
2018-06-28T09:46:06.866Z,1016.40
2018-06-28T09:47:06.879Z,1016.46
2018-06-28T09:48:06.847Z,1016.65
2018-06-28T09:49:06.843Z,1016.86
2018-06-28T09:50:06.836Z,1016.83
2018-06-28T09:51:06.819Z,1016.80
2018-06-28T09:52:06.822Z,1016.73
2018-06-28T09:53:06.804Z,1016.68
2018-06-28T09:54:06.792Z,1016.75
2018-06-28T09:55:06.784Z,1016.66
2018-06-28T09:56:06.774Z,1016.42
2018-06-28T09:57:06.779Z,1016.86
2018-06-28T09:58:06.755Z,1016.86
2018-06-28T09:59:06.747Z,1016.87
2018-06-28T10:00:06.738Z,1016.77
2018-06-28T10:01:06.729Z,1016.75
2018-06-28T10:02:06.723Z,1016.72
2018-06-28T10:03:06.725Z,1016.83
2018-06-28T10:04:06.708Z,1016.53
2018-06-28T10:05:06.696Z,1016.75
2018-06-28T10:06:06.695Z,1016.77
2018-06-28T10:07:06.683Z,1016.72
2018-06-28T10:08:06.689Z,1016.72
2018-06-28T10:09:06.675Z,1016.70
2018-06-28T10:10:06.653Z,1016.77
2018-06-28T10:11:06.649Z,1016.68
2018-06-28T10:12:06.636Z,1016.68
2018-06-28T10:13:06.642Z,1016.66
2018-06-28T10:14:06.617Z,1016.72
2018-06-28T10:15:06.615Z,1016.76
2018-06-28T10:16:06.602Z,1016.68
2018-06-28T10:17:06.598Z,1016.70
2018-06-28T10:18:06.609Z,1016.64
2018-06-28T10:19:06.577Z,1016.61
2018-06-28T10:20:06.569Z,1016.67
2018-06-28T10:21:06.571Z,1016.63
2018-06-28T10:22:06.562Z,1016.61
2018-06-28T10:23:06.573Z,1016.64
2018-06-28T10:24:06.536Z,1016.67
2018-06-28T10:25:06.556Z,1016.59
2018-06-28T10:26:06.522Z,1016.58
2018-06-28T10:27:06.512Z,1016.56
2018-06-28T10:28:06.506Z,1016.56
2018-06-28T10:29:06.513Z,1016.53
2018-06-28T10:30:06.485Z,1016.40
2018-06-28T10:31:06.478Z,1016.39
2018-06-28T10:32:06.470Z,1016.36
2018-06-28T10:33:06.474Z,1016.44
2018-06-28T10:34:08.202Z,1016.43
2018-06-28T10:35:06.455Z,1016.41
2018-06-28T10:36:06.464Z,1016.35
2018-06-28T10:37:06.429Z,1016.36
2018-06-28T10:38:06.421Z,1016.37
2018-06-28T10:39:06.470Z,1016.38
2018-06-28T10:40:06.405Z,1016.38
2018-06-28T10:41:06.395Z,1016.39
2018-06-28T10:42:06.388Z,1016.39
2018-06-28T10:43:06.379Z,1016.37
2018-06-28T10:44:06.370Z,1016.39
2018-06-28T10:45:06.376Z,1016.45
2018-06-28T10:46:06.354Z,1016.38
2018-06-28T10:47:06.348Z,1016.39
2018-06-28T10:48:06.359Z,1016.33
2018-06-28T10:49:06.350Z,1016.22
2018-06-28T10:50:06.333Z,1016.21
2018-06-28T10:51:06.312Z,1016.20
2018-06-28T10:52:06.305Z,1016.19
2018-06-28T10:53:06.297Z,1016.18
2018-06-28T10:54:06.346Z,1016.19
2018-06-28T10:55:06.293Z,1016.21
2018-06-28T10:56:06.271Z,1016.22
2018-06-28T10:57:06.263Z,1016.24
2018-06-28T10:58:06.277Z,1016.23
2018-06-28T10:59:06.246Z,1016.20
2018-06-28T11:00:06.281Z,1016.17
2018-06-28T11:01:06.236Z,1016.08
2018-06-28T11:02:06.255Z,1016.11
2018-06-28T11:03:06.275Z,1016.08
2018-06-28T11:04:06.204Z,1016.07
2018-06-28T11:05:06.218Z,1016.07
2018-06-28T11:06:06.210Z,1016.03
2018-06-28T11:07:06.208Z,1016.08
2018-06-28T11:08:06.173Z,1016.10
2018-06-28T11:09:06.167Z,1016.16
2018-06-28T11:10:06.154Z,1016.11
2018-06-28T11:11:06.156Z,1016.10
2018-06-28T11:12:06.135Z,1016.12
2018-06-28T11:13:06.128Z,1016.17
2018-06-28T11:14:06.121Z,1016.09
2018-06-28T11:15:06.110Z,1016.12
2018-06-28T11:16:06.120Z,1016.09
2018-06-28T11:17:06.093Z,1016.05
2018-06-28T11:18:06.087Z,1016.09
2018-06-28T11:19:06.079Z,1016.01
2018-06-28T11:20:06.081Z,1016.01
2018-06-28T11:21:06.061Z,1016.03
2018-06-28T11:22:06.069Z,1015.95
2018-06-28T11:23:06.046Z,1016.03
2018-06-28T11:24:06.036Z,1016.05
2018-06-28T11:25:06.031Z,1015.97
2018-06-28T11:26:06.022Z,1015.99
2018-06-28T11:27:06.031Z,1015.51
2018-06-28T11:28:06.005Z,1016.00
2018-06-28T11:29:05.998Z,1015.92
2018-06-28T11:30:05.990Z,1015.95
2018-06-28T11:31:06.005Z,1015.77
2018-06-28T11:32:06.012Z,1015.45
2018-06-28T11:33:05.964Z,1015.53
2018-06-28T11:34:05.995Z,1015.80
2018-06-28T11:35:05.953Z,1015.85
2018-06-28T11:36:05.940Z,1015.77
2018-06-28T11:37:05.932Z,1015.88
2018-06-28T11:38:05.932Z,1015.82
2018-06-28T11:39:05.914Z,1015.90
2018-06-28T11:40:05.906Z,1015.87
2018-06-28T11:41:05.895Z,1015.87
2018-06-28T11:42:05.886Z,1015.88
2018-06-28T11:43:05.892Z,1015.81
2018-06-28T11:44:05.869Z,1015.77
2018-06-28T11:45:05.862Z,1015.76
2018-06-28T11:46:05.854Z,1015.69
2018-06-28T11:47:05.846Z,1015.65
2018-06-28T11:48:05.853Z,1015.54
2018-06-28T11:49:05.828Z,1015.50
2018-06-28T11:50:05.817Z,1015.38
2018-06-28T11:51:05.807Z,1015.27
2018-06-28T11:52:05.798Z,1015.15
2018-06-28T11:53:05.792Z,1015.04
2018-06-28T11:54:05.805Z,1014.97
2018-06-28T11:55:05.770Z,1015.00
2018-06-28T11:56:05.762Z,1015.04
2018-06-28T11:57:05.758Z,1014.96
2018-06-28T11:58:05.745Z,1014.96
2018-06-28T11:59:05.745Z,1014.93
2018-06-28T12:00:05.723Z,1014.91
2018-06-28T12:01:05.774Z,1014.95
2018-06-28T12:02:05.717Z,1014.90
2018-06-28T12:03:05.693Z,1014.83
2018-06-28T12:04:05.698Z,1014.91
2018-06-28T12:05:05.675Z,1014.85